Edgerton, Minnesota
Current Conditions -  °F | °C
As of 8:14 AM on Monday 26 Jan 2015 (Local Time) from KPQN Reporting Station
Clear Clear  
Wind Chill: 28°   Ceiling: Unl
Heat Index: 36°   Visibility: 10mi
Dew Point: 32°   Wind: 12mph
Humidity: 87%   Direction: 320°NW
Pressure: 29.78"   Gusts: 17mph
Location:  43.87°N, 96.13°W
Report Text: KPQN 261414Z AUTO 32010G15KT 10SM CLR 02/00 A2978 RMK AO2
Loading
Personal Weather Stations






























Interactive Weather Map New forecast layout! Learn more

10-Day Weather Forecast

Advertisements
Track Severe Weather on mobile